Time;durP1;ratioP1;P1;durP2;ratioP2;P2;SDS_P1;SDS_P2;PMS_P1;PMS_P2;Temp;Humidity;BMP_temperature;BMP_pressure;BME280_temperature;BME280_humidity;BME280_pressure;Samples;Min_cycle;Max_cycle;Signal;HPM_P1;HPM_P2
2022/02/05 00:01:43;;;;;;;55.90;36.50;;;;;;;;;;5090729;28;20792;-78
2022/02/05 00:04:13;;;;;;;75.18;41.95;;;;;;;;;;5088389;28;20028;-79
2022/02/05 00:06:42;;;;;;;57.13;39.75;;;;;;;;;;5089276;28;20039;-79
2022/02/05 00:09:17;;;;;;;43.60;30.88;;;;;;;;;;5088575;28;20065;-79
2022/02/05 00:39:07;;;;;;;37.33;26.58;;;;;;;;;;5069610;28;20511;-79
2022/02/05 00:42:06;;;;;;;42.13;31.50;;;;;;;;;;5070229;28;20043;-79
2022/02/05 00:44:19;;;;;;;42.03;31.10;;;;;;;;;;5072659;28;20034;-79
2022/02/05 00:46:47;;;;;;;45.90;30.17;;;;;;;;;;5068339;28;20040;-79
2022/02/05 00:49:14;;;;;;;32.50;23.05;;;;;;;;;;5071151;28;20040;-79
2022/02/05 00:51:47;;;;;;;34.45;24.45;;;;;;;;;;5088571;28;20040;-79
2022/02/05 00:54:19;;;;;;;;;;;;;;;;;;5088942;28;20034;-79
2022/02/05 00:59:13;;;;;;;41.83;29.27;;;;;;;;;;5075663;28;20049;-79
2022/02/05 01:01:39;;;;;;;58.63;36.05;;;;;;;;;;5087993;28;20028;-78
2022/02/05 01:04:05;;;;;;;49.00;27.77;;;;;;;;;;5080461;28;20111;-78
2022/02/05 01:06:31;;;;;;;59.42;31.27;;;;;;;;;;5085266;28;20115;-79
2022/02/05 01:08:57;;;;;;;55.70;32.38;;;;;;;;;;5088375;28;20040;-78
2022/02/05 01:11:23;;;;;;;51.35;30.52;;;;;;;;;;5087907;28;20089;-79
2022/02/05 01:13:51;;;;;;;41.45;26.60;;;;;;;;;;5088226;28;20032;-78
2022/02/05 01:16:32;;;;;;;49.67;31.75;;;;;;;;;;5087733;28;20040;-79
2022/02/05 01:18:58;;;;;;;44.63;28.25;;;;;;;;;;5089320;28;20024;-79
2022/02/05 01:21:39;;;;;;;50.67;32.35;;;;;;;;;;5086618;28;20082;-79
2022/02/05 01:24:08;;;;;;;36.58;26.00;;;;;;;;;;5081084;28;20066;-79
2022/02/05 01:29:06;;;;;;;36.97;25.58;;;;;;;;;;5089662;28;20036;-79
2022/02/05 01:31:39;;;;;;;53.78;34.53;;;;;;;;;;5077086;28;20059;-79
2022/02/05 01:34:45;;;;;;;73.25;44.40;;;;;;;;;;5089148;28;20035;-78
2022/02/05 01:50:56;;;;;;;32.05;21.50;;;;;;;;;;5089273;28;20043;-79
2022/02/05 01:53:50;;;;;;;42.72;25.13;;;;;;;;;;5072385;28;20062;-79
2022/02/05 01:56:45;;;;;;;40.38;25.85;;;;;;;;;;5090167;28;20108;-79
2022/02/05 02:12:10;;;;;;;23.85;16.63;;;;;;;;;;5096256;28;20055;-78
2022/02/05 02:27:31;;;;;;;26.85;18.10;;;;;;;;;;5112960;28;20525;-79
2022/02/05 02:32:41;;;;;;;22.67;14.57;;;;;;;;;;5092672;28;20043;-79
2022/02/05 02:35:13;;;;;;;25.17;16.73;;;;;;;;;;5108943;28;20028;-79
2022/02/05 02:37:52;;;;;;;25.27;17.85;;;;;;;;;;5101697;28;20032;-79
2022/02/05 02:43:08;;;;;;;28.52;20.38;;;;;;;;;;5092047;28;20039;-78
2022/02/05 02:45:35;;;;;;;36.50;25.55;;;;;;;;;;5078996;28;20495;-79
2022/02/05 02:48:01;;;;;;;32.38;22.60;;;;;;;;;;5111245;28;20122;-78
2022/02/05 02:50:35;;;;;;;30.23;19.77;;;;;;;;;;5076645;28;20560;-79
2022/02/05 02:58:34;;;;;;;22.27;15.25;;;;;;;;;;5112544;28;20035;-79
2022/02/05 03:01:01;;;;;;;30.58;17.65;;;;;;;;;;5110407;28;20042;-78
2022/02/05 03:03:27;;;;;;;24.55;16.00;;;;;;;;;;5097598;28;20024;-79
2022/02/05 03:05:54;;;;;;;26.75;16.58;;;;;;;;;;5073860;28;20043;-79
2022/02/05 03:08:20;;;;;;;25.67;16.95;;;;;;;;;;5086503;28;20036;-79
2022/02/05 03:10:46;;;;;;;30.05;18.88;;;;;;;;;;5073222;28;20374;-78
2022/02/05 03:13:12;;;;;;;28.33;18.55;;;;;;;;;;5109670;28;20036;-79
2022/02/05 03:15:40;;;;;;;29.02;17.17;;;;;;;;;;5111682;28;20115;-79
2022/02/05 03:18:11;;;;;;;26.58;17.73;;;;;;;;;;5076330;28;20063;-79
2022/02/05 03:20:37;;;;;;;43.38;28.13;;;;;;;;;;5107022;28;20035;-79
2022/02/05 03:23:04;;;;;;;57.55;37.45;;;;;;;;;;5104636;28;20028;-79
2022/02/05 03:25:31;;;;;;;55.05;38.90;;;;;;;;;;5110565;28;20035;-78
2022/02/05 03:27:57;;;;;;;48.35;30.95;;;;;;;;;;5098887;28;20034;-78
2022/02/05 03:30:24;;;;;;;36.58;23.10;;;;;;;;;;5087773;28;20032;-78
2022/02/05 03:32:50;;;;;;;30.90;17.95;;;;;;;;;;5099424;28;20035;-78
2022/02/05 03:35:16;;;;;;;31.83;21.38;;;;;;;;;;5110806;28;20031;-79
2022/02/05 03:37:42;;;;;;;29.73;19.58;;;;;;;;;;5094193;28;20040;-79
2022/02/05 03:40:08;;;;;;;28.05;17.40;;;;;;;;;;5090850;28;20036;-79
2022/02/05 03:42:35;;;;;;;25.30;16.52;;;;;;;;;;5078551;28;20077;-79
2022/02/05 03:45:01;;;;;;;29.48;20.20;;;;;;;;;;5072609;28;20121;-79
2022/02/05 03:47:31;;;;;;;25.60;16.73;;;;;;;;;;5073018;28;20032;-78
2022/02/05 03:49:57;;;;;;;20.88;15.27;;;;;;;;;;5103539;28;20031;-79
2022/02/05 03:52:23;;;;;;;24.90;16.55;;;;;;;;;;5111008;28;20381;-78
2022/02/05 03:54:49;;;;;;;25.27;17.45;;;;;;;;;;5090814;28;20043;-79
2022/02/05 03:57:16;;;;;;;41.55;22.80;;;;;;;;;;5071972;28;20032;-79
2022/02/05 03:59:42;;;;;;;38.13;21.20;;;;;;;;;;5087297;28;20028;-79
2022/02/05 04:02:08;;;;;;;33.38;18.50;;;;;;;;;;5081443;28;20050;-79
2022/02/05 04:04:34;;;;;;;30.67;16.27;;;;;;;;;;5105202;28;20078;-78
2022/02/05 04:07:01;;;;;;;24.60;14.93;;;;;;;;;;5093559;28;20038;-78
2022/02/05 04:09:34;;;;;;;19.02;12.10;;;;;;;;;;5080973;28;20047;-79
2022/02/05 04:17:14;;;;;;;22.70;13.80;;;;;;;;;;5101785;28;20043;-79
2022/02/05 04:19:40;;;;;;;19.98;13.35;;;;;;;;;;5100786;28;20465;-79
2022/02/05 04:22:06;;;;;;;24.73;15.02;;;;;;;;;;5091632;28;20029;-78
2022/02/05 04:24:32;;;;;;;21.33;14.27;;;;;;;;;;5087932;28;20114;-79
2022/02/05 04:26:58;;;;;;;23.30;14.88;;;;;;;;;;5110537;28;20115;-79
2022/02/05 04:29:24;;;;;;;21.70;15.18;;;;;;;;;;5078524;28;20039;-79
2022/02/05 04:31:50;;;;;;;24.35;14.90;;;;;;;;;;5087683;28;20036;-78
2022/02/05 04:34:16;;;;;;;28.45;15.32;;;;;;;;;;5092506;28;20031;-79
2022/02/05 04:36:42;;;;;;;24.88;14.98;;;;;;;;;;5098395;28;20127;-79
2022/02/05 04:39:15;;;;;;;24.45;15.98;;;;;;;;;;5098215;28;20055;-79
2022/02/05 04:57:09;;;;;;;26.55;15.52;;;;;;;;;;5107495;28;20404;-78
2022/02/05 05:02:38;;;;;;;22.85;15.23;;;;;;;;;;5089533;28;20400;-79
2022/02/05 05:13:08;;;;;;;33.55;22.95;;;;;;;;;;5094049;28;20118;-79
2022/02/05 05:19:11;;;;;;;;;;;;;;;;;;5089848;28;20059;-78
2022/02/05 05:21:05;;;;;;;31.13;18.02;;;;;;;;;;5090260;28;20389;-78
2022/02/05 05:23:31;;;;;;;27.75;17.73;;;;;;;;;;5071610;28;20036;-78
2022/02/05 05:25:57;;;;;;;23.55;16.38;;;;;;;;;;5105924;28;20039;-79
2022/02/05 05:28:23;;;;;;;27.75;16.65;;;;;;;;;;5097249;28;20085;-78
2022/02/05 05:30:49;;;;;;;25.50;15.55;;;;;;;;;;5109370;28;20036;-79
2022/02/05 05:33:15;;;;;;;25.83;15.13;;;;;;;;;;5072496;28;20508;-78
2022/02/05 05:35:41;;;;;;;24.95;16.77;;;;;;;;;;5093289;28;20032;-78
2022/02/05 05:38:07;;;;;;;29.55;16.38;;;;;;;;;;5093355;28;20039;-78
2022/02/05 05:40:35;;;;;;;39.92;21.23;;;;;;;;;;5094086;28;20038;-78
2022/02/05 05:43:05;;;;;;;35.28;20.05;;;;;;;;;;5093081;28;20028;-78
2022/02/05 05:48:27;;;;;;;37.63;24.08;;;;;;;;;;5093544;28;20046;-78
2022/02/05 05:53:11;;;;;;;35.58;25.55;;;;;;;;;;5108796;28;20389;-78
2022/02/05 05:55:41;;;;;;;39.08;25.75;;;;;;;;;;5113600;28;20051;-78
2022/02/05 05:58:07;;;;;;;42.03;27.90;;;;;;;;;;5091160;28;20040;-78
2022/02/05 06:00:33;;;;;;;47.75;30.08;;;;;;;;;;5101138;28;20062;-78
2022/02/05 06:02:59;;;;;;;40.88;27.98;;;;;;;;;;5094037;28;20071;-80
2022/02/05 06:05:25;;;;;;;37.08;25.08;;;;;;;;;;5074926;28;20027;-78
2022/02/05 06:07:51;;;;;;;32.45;23.65;;;;;;;;;;5113131;28;20081;-78
2022/02/05 06:10:17;;;;;;;35.35;23.67;;;;;;;;;;5113430;28;20604;-78
2022/02/05 06:12:43;;;;;;;33.40;22.23;;;;;;;;;;5113008;27;20046;-78
2022/02/05 06:15:10;;;;;;;28.02;20.55;;;;;;;;;;5111801;27;20118;-78
2022/02/05 06:17:36;;;;;;;28.05;20.92;;;;;;;;;;5124276;27;20039;-78
2022/02/05 06:20:03;;;;;;;26.25;18.13;;;;;;;;;;5121578;27;20047;-78
2022/02/05 06:22:29;;;;;;;27.17;19.67;;;;;;;;;;5094575;28;20569;-78
2022/02/05 06:24:55;;;;;;;45.63;29.70;;;;;;;;;;5121802;27;20031;-78
2022/02/05 06:27:21;;;;;;;28.08;19.00;;;;;;;;;;5110175;27;20105;-78
2022/02/05 06:29:47;;;;;;;26.70;17.88;;;;;;;;;;5092784;28;20028;-78
2022/02/05 06:32:15;;;;;;;27.33;19.02;;;;;;;;;;5093884;28;20039;-78
2022/02/05 06:34:41;;;;;;;33.13;22.25;;;;;;;;;;5106200;28;20484;-78
2022/02/05 06:37:07;;;;;;;30.23;22.42;;;;;;;;;;5098212;28;20051;-78
2022/02/05 06:39:33;;;;;;;33.05;20.80;;;;;;;;;;5098937;28;20028;-78
2022/02/05 06:41:59;;;;;;;32.35;23.45;;;;;;;;;;5094932;28;20111;-78
2022/02/05 06:44:25;;;;;;;29.73;21.35;;;;;;;;;;5095056;28;20145;-78
2022/02/05 06:46:51;;;;;;;35.53;21.98;;;;;;;;;;5100094;28;20461;-77
2022/02/05 06:49:19;;;;;;;32.95;23.65;;;;;;;;;;5110441;27;20031;-78
2022/02/05 06:51:45;;;;;;;49.08;32.78;;;;;;;;;;5084507;28;20487;-78
2022/02/05 06:54:11;;;;;;;35.60;25.00;;;;;;;;;;5076318;28;20036;-78
2022/02/05 06:56:37;;;;;;;36.50;23.23;;;;;;;;;;5098443;28;20054;-78
2022/02/05 06:59:03;;;;;;;44.08;25.98;;;;;;;;;;5098908;28;20111;-78
2022/02/05 07:01:29;;;;;;;32.33;21.90;;;;;;;;;;5097978;28;20396;-79
2022/02/05 07:03:56;;;;;;;33.45;22.75;;;;;;;;;;5122970;27;20027;-78
2022/02/05 07:06:22;;;;;;;30.63;22.02;;;;;;;;;;5103971;27;20034;-78
2022/02/05 07:08:48;;;;;;;34.05;22.45;;;;;;;;;;5126510;27;20031;-78
2022/02/05 07:11:14;;;;;;;30.33;20.35;;;;;;;;;;5083840;28;20032;-79
2022/02/05 07:13:40;;;;;;;37.75;25.50;;;;;;;;;;5083063;28;20027;-78
2022/02/05 07:21:12;;;;;;;22.25;13.77;;;;;;;;;;5098711;28;20502;-78
2022/02/05 07:31:34;;;;;;;25.90;12.95;;;;;;;;;;5103525;28;20127;-79
2022/02/05 07:34:01;;;;;;;18.60;12.70;;;;;;;;;;5103639;28;20132;-79
2022/02/05 07:36:27;;;;;;;16.58;11.60;;;;;;;;;;5103372;27;20042;-79
2022/02/05 07:38:53;;;;;;;21.30;12.93;;;;;;;;;;5107156;27;20024;-80
2022/02/05 07:41:19;;;;;;;20.73;13.88;;;;;;;;;;5086383;28;20028;-80
2022/02/05 07:43:45;;;;;;;28.00;14.23;;;;;;;;;;5111134;28;20505;-80
2022/02/05 07:46:12;;;;;;;25.23;14.32;;;;;;;;;;5102927;28;20046;-79
2022/02/05 07:48:39;;;;;;;23.52;14.10;;;;;;;;;;5104637;27;20055;-80
2022/02/05 07:51:05;;;;;;;20.80;14.15;;;;;;;;;;5100921;27;20126;-80
2022/02/05 07:53:32;;;;;;;29.58;18.23;;;;;;;;;;5124753;27;20520;-80
2022/02/05 07:55:58;;;;;;;26.95;16.02;;;;;;;;;;5079940;28;20055;-80
2022/02/05 07:58:24;;;;;;;28.75;18.85;;;;;;;;;;5096731;28;20040;-79
2022/02/05 08:00:52;;;;;;;30.17;16.42;;;;;;;;;;5108760;27;20528;-80
2022/02/05 08:03:18;;;;;;;27.02;17.63;;;;;;;;;;5092521;28;20457;-79
2022/02/05 08:05:44;;;;;;;31.48;18.02;;;;;;;;;;5096723;28;20062;-79
2022/02/05 08:08:14;;;;;;;21.55;15.85;;;;;;;;;;5099731;28;20048;-78
2022/02/05 08:10:48;;;;;;;32.20;20.52;;;;;;;;;;5095755;28;20520;-80
2022/02/05 08:13:15;;;;;;;42.15;24.35;;;;;;;;;;5090543;28;20036;-80
2022/02/05 08:15:41;;;;;;;45.63;24.52;;;;;;;;;;5100968;28;20040;-79
2022/02/05 08:18:07;;;;;;;39.55;25.30;;;;;;;;;;5091529;28;20028;-79
2022/02/05 08:20:33;;;;;;;41.15;27.58;;;;;;;;;;5090192;28;20028;-79
2022/02/05 08:22:59;;;;;;;38.28;23.30;;;;;;;;;;5109056;28;20058;-79
2022/02/05 08:25:27;;;;;;;35.20;22.88;;;;;;;;;;5110171;28;20062;-80
2022/02/05 08:27:53;;;;;;;42.47;27.70;;;;;;;;;;5087358;28;20076;-80
2022/02/05 08:30:19;;;;;;;42.53;29.73;;;;;;;;;;5101232;28;20111;-80
2022/02/05 08:32:45;;;;;;;38.28;26.85;;;;;;;;;;5105506;27;20473;-81
2022/02/05 08:35:12;;;;;;;44.97;28.02;;;;;;;;;;5083070;28;20528;-78
2022/02/05 08:37:40;;;;;;;43.55;28.77;;;;;;;;;;5098067;28;20035;-81
2022/02/05 08:40:07;;;;;;;41.42;29.75;;;;;;;;;;5108994;27;20034;-81
2022/02/05 08:42:33;;;;;;;37.50;24.75;;;;;;;;;;5075515;28;20032;-81
2022/02/05 08:44:59;;;;;;;43.22;27.13;;;;;;;;;;5101990;27;20031;-80
2022/02/05 08:47:25;;;;;;;35.25;23.77;;;;;;;;;;5104111;27;20032;-79
2022/02/05 08:49:52;;;;;;;33.70;24.60;;;;;;;;;;5072050;28;20032;-80
2022/02/05 08:52:19;;;;;;;32.10;23.27;;;;;;;;;;5082325;28;20032;-80
2022/02/05 08:54:45;;;;;;;32.50;22.10;;;;;;;;;;5090554;28;20062;-80
2022/02/05 08:57:12;;;;;;;35.45;25.48;;;;;;;;;;5095550;28;20043;-80
2022/02/05 08:59:52;;;;;;;32.03;23.58;;;;;;;;;;5073816;28;20106;-80
2022/02/05 09:02:27;;;;;;;40.08;27.15;;;;;;;;;;5102734;28;20429;-80
2022/02/05 09:07:25;;;;;;;30.15;20.00;;;;;;;;;;5109967;28;20455;-81
2022/02/05 09:12:31;;;;;;;24.80;17.15;;;;;;;;;;5109866;28;20055;-80
2022/02/05 09:14:57;;;;;;;27.25;21.05;;;;;;;;;;5119709;28;20031;-80
2022/02/05 09:17:23;;;;;;;34.92;22.25;;;;;;;;;;5075009;28;20563;-79
2022/02/05 09:19:50;;;;;;;33.50;20.75;;;;;;;;;;5104974;28;20465;-80
2022/02/05 09:22:16;;;;;;;32.67;22.50;;;;;;;;;;5084388;28;20024;-80
2022/02/05 09:24:42;;;;;;;27.83;21.63;;;;;;;;;;5100228;28;20030;-81
2022/02/05 09:27:12;;;;;;;33.65;22.08;;;;;;;;;;5077404;28;20867;-80
2022/02/05 09:30:00;;;;;;;34.42;22.95;;;;;;;;;;5085171;28;20051;-80
2022/02/05 09:32:24;;;;;;;28.92;20.85;;;;;;;;;;5099197;28;20391;-81
2022/02/05 09:34:50;;;;;;;32.47;21.30;;;;;;;;;;5097550;28;20368;-81
2022/02/05 09:37:16;;;;;;;30.88;21.45;;;;;;;;;;5106914;28;20035;-81
2022/02/05 09:39:43;;;;;;;32.13;22.05;;;;;;;;;;5077911;28;20032;-80
2022/02/05 09:42:11;;;;;;;29.70;21.58;;;;;;;;;;5084552;28;20081;-81
2022/02/05 09:44:38;;;;;;;31.27;21.38;;;;;;;;;;5070880;28;20076;-81
2022/02/05 09:47:04;;;;;;;32.50;23.40;;;;;;;;;;5080539;28;20530;-81
2022/02/05 09:49:30;;;;;;;32.58;23.88;;;;;;;;;;5099838;28;20032;-81
2022/02/05 09:52:07;;;;;;;29.05;22.65;;;;;;;;;;5092308;28;20032;-80
2022/02/05 09:54:34;;;;;;;30.48;22.83;;;;;;;;;;5072864;28;20839;-81
2022/02/05 09:57:00;;;;;;;31.75;22.63;;;;;;;;;;5105878;28;20468;-82
2022/02/05 09:59:26;;;;;;;30.17;21.35;;;;;;;;;;5099497;28;20091;-80
2022/02/05 10:02:12;;;;;;;27.85;20.20;;;;;;;;;;5075177;28;20811;-81
2022/02/05 10:04:59;;;;;;;25.92;19.58;;;;;;;;;;5088424;28;20236;-81
2022/02/05 10:07:26;;;;;;;20.40;15.18;;;;;;;;;;5071754;28;20863;-82
2022/02/05 10:09:55;;;;;;;17.42;13.02;;;;;;;;;;5073627;28;20056;-81
2022/02/05 10:12:21;;;;;;;18.48;12.65;;;;;;;;;;5078492;28;20031;-82
2022/02/05 10:14:54;;;;;;;18.15;11.80;;;;;;;;;;5086170;28;20035;-81
2022/02/05 10:17:20;;;;;;;15.80;10.70;;;;;;;;;;5085406;28;20135;-82
2022/02/05 10:19:48;;;;;;;16.05;10.27;;;;;;;;;;5097550;28;20036;-82
2022/02/05 10:22:14;;;;;;;15.90;9.93;;;;;;;;;;5092903;28;20032;-82
2022/02/05 10:24:50;;;;;;;14.13;9.63;;;;;;;;;;5103721;27;20027;-81
2022/02/05 10:27:28;;;;;;;11.68;7.65;;;;;;;;;;5094840;28;20035;-81
2022/02/05 10:30:25;;;;;;;13.55;9.32;;;;;;;;;;5079406;28;20130;-82
2022/02/05 10:33:03;;;;;;;15.18;10.77;;;;;;;;;;5083561;27;20058;-82
2022/02/05 10:38:16;;;;;;;11.02;6.93;;;;;;;;;;5110135;28;20047;-83
2022/02/05 10:40:50;;;;;;;11.10;6.57;;;;;;;;;;5092896;28;20032;-82
2022/02/05 10:43:31;;;;;;;8.80;5.57;;;;;;;;;;5092357;28;20032;-82
2022/02/05 10:45:57;;;;;;;9.60;6.25;;;;;;;;;;5098692;28;20024;-82
2022/02/05 10:48:25;;;;;;;11.32;7.13;;;;;;;;;;5109640;28;20077;-82
2022/02/05 10:50:53;;;;;;;13.57;8.90;;;;;;;;;;5105201;27;21319;-83
2022/02/05 10:53:55;;;;;;;13.63;8.65;;;;;;;;;;5118325;23;20049;-83
2022/02/05 10:56:33;;;;;;;9.10;5.85;;;;;;;;;;5073668;28;20692;-81
2022/02/05 11:07:14;;;;;;;8.63;4.90;;;;;;;;;;5087924;28;20085;-83
2022/02/05 11:09:43;;;;;;;9.38;4.93;;;;;;;;;;5065274;28;20435;-82
2022/02/05 11:20:11;;;;;;;7.88;4.53;;;;;;;;;;5090051;28;20046;-82
2022/02/05 11:22:39;;;;;;;9.77;5.78;;;;;;;;;;5075842;28;20066;-83
2022/02/05 11:25:06;;;;;;;10.85;6.45;;;;;;;;;;5069923;28;20039;-82
2022/02/05 11:27:33;;;;;;;12.05;7.05;;;;;;;;;;5063283;28;20158;-83
2022/02/05 11:37:54;;;;;;;9.30;6.07;;;;;;;;;;5472792;22;20123;-81
2022/02/05 11:40:51;;;;;;;10.02;5.45;;;;;;;;;;5091057;28;20028;-82
2022/02/05 11:43:23;;;;;;;8.98;5.30;;;;;;;;;;5073855;28;20076;-82
2022/02/05 11:46:05;;;;;;;9.40;5.70;;;;;;;;;;5075793;28;20033;-82
2022/02/05 11:48:50;;;;;;;10.15;5.40;;;;;;;;;;5075683;28;20595;-83
2022/02/05 11:51:36;;;;;;;9.27;5.22;;;;;;;;;;5073102;28;20020;-84
2022/02/05 11:54:05;;;;;;;8.38;4.80;;;;;;;;;;5065837;28;20127;-83
2022/02/05 11:56:34;;;;;;;7.93;4.43;;;;;;;;;;5064259;28;21009;-83
2022/02/05 11:59:01;;;;;;;7.22;4.65;;;;;;;;;;5069474;28;20028;-83
2022/02/05 12:13:57;;;;;;;6.25;3.38;;;;;;;;;;4933869;29;20493;-83
2022/02/05 12:25:17;;;;;;;6.70;3.40;;;;;;;;;;5059018;28;20124;-82
2022/02/05 14:58:04;;;;;;;7.25;3.20;;;;;;;;;;3049289;24;20060;-82
2022/02/05 15:00:32;;;;;;;8.95;3.15;;;;;;;;;;4871139;29;20120;-82
2022/02/05 15:02:58;;;;;;;6.13;2.05;;;;;;;;;;4867072;29;20051;-83
2022/02/05 15:05:24;;;;;;;25.48;10.43;;;;;;;;;;4861113;29;20033;-81
2022/02/05 15:07:50;;;;;;;16.52;6.00;;;;;;;;;;4869742;29;20124;-81
2022/02/05 15:10:17;;;;;;;8.07;3.70;;;;;;;;;;4877169;29;20123;-81
2022/02/05 15:12:43;;;;;;;15.05;6.95;;;;;;;;;;4865975;29;20040;-81
2022/02/05 15:15:24;;;;;;;13.98;7.07;;;;;;;;;;4857703;29;20029;-81
2022/02/05 15:17:50;;;;;;;5.95;2.22;;;;;;;;;;4875548;29;20085;-81
2022/02/05 15:20:19;;;;;;;4.05;1.23;;;;;;;;;;4870393;29;20040;-82
2022/02/05 15:22:46;;;;;;;6.55;3.03;;;;;;;;;;4846848;29;20065;-81
2022/02/05 15:25:12;;;;;;;7.63;2.70;;;;;;;;;;4846096;29;20037;-82
2022/02/05 15:27:39;;;;;;;3.08;1.17;;;;;;;;;;4847895;29;20037;-81
2022/02/05 15:30:06;;;;;;;7.60;3.45;;;;;;;;;;4858559;29;20037;-82
2022/02/05 15:32:32;;;;;;;14.63;6.82;;;;;;;;;;4860710;29;20697;-82
2022/02/05 15:34:58;;;;;;;12.50;4.53;;;;;;;;;;4877742;29;20550;-82
2022/02/05 15:37:26;;;;;;;7.82;2.95;;;;;;;;;;4855618;29;20069;-82
2022/02/05 15:45:12;;;;;;;5.70;2.35;;;;;;;;;;4862303;29;20048;-81
2022/02/05 15:47:38;;;;;;;4.10;1.65;;;;;;;;;;4872114;29;20095;-82
2022/02/05 15:50:04;;;;;;;4.05;1.95;;;;;;;;;;4877155;29;20472;-81
2022/02/05 15:52:30;;;;;;;8.20;2.83;;;;;;;;;;4877307;29;20159;-82
2022/02/05 15:54:59;;;;;;;9.48;3.88;;;;;;;;;;4858142;29;20084;-83
2022/02/05 15:57:58;;;;;;;8.93;4.90;;;;;;;;;;4844604;29;20089;-82
2022/02/05 16:00:27;;;;;;;11.50;5.68;;;;;;;;;;4870852;29;20437;-82
2022/02/05 16:02:53;;;;;;;14.52;7.97;;;;;;;;;;4864662;29;20038;-83
2022/02/05 16:05:19;;;;;;;15.60;9.18;;;;;;;;;;4869623;29;20056;-82
2022/02/05 16:07:45;;;;;;;12.57;7.85;;;;;;;;;;4841869;29;20072;-83
2022/02/05 16:10:14;;;;;;;14.45;7.40;;;;;;;;;;4854093;29;20045;-82
2022/02/05 16:12:45;;;;;;;12.77;6.72;;;;;;;;;;4859714;29;20041;-83
2022/02/05 16:15:11;;;;;;;9.68;4.32;;;;;;;;;;4856391;29;20127;-82
2022/02/05 16:17:37;;;;;;;28.70;20.25;;;;;;;;;;4859445;29;20503;-83
2022/02/05 16:20:04;;;;;;;31.10;19.80;;;;;;;;;;4860539;29;20058;-83
2022/02/05 16:22:30;;;;;;;23.50;14.68;;;;;;;;;;4859139;29;20041;-83
2022/02/05 16:24:56;;;;;;;15.10;11.30;;;;;;;;;;4860035;29;20108;-81
2022/02/05 16:27:24;;;;;;;14.98;8.95;;;;;;;;;;4854576;29;20132;-83
2022/02/05 16:29:50;;;;;;;12.43;8.20;;;;;;;;;;4852204;29;20037;-82
2022/02/05 16:32:16;;;;;;;10.38;5.75;;;;;;;;;;4858770;29;20037;-81
2022/02/05 16:34:49;;;;;;;13.57;7.35;;;;;;;;;;4859441;29;20060;-81
2022/02/05 16:37:16;;;;;;;11.93;6.55;;;;;;;;;;4877062;29;20044;-83
2022/02/05 16:39:44;;;;;;;9.63;5.57;;;;;;;;;;4859911;29;20033;-83
2022/02/05 16:42:10;;;;;;;9.23;3.97;;;;;;;;;;4855950;29;20044;-82
2022/02/05 16:44:36;;;;;;;11.30;5.03;;;;;;;;;;4877060;29;20040;-83
2022/02/05 16:47:03;;;;;;;9.73;4.72;;;;;;;;;;4877144;29;20041;-81
2022/02/05 16:49:29;;;;;;;6.70;3.17;;;;;;;;;;4859403;29;20096;-82
2022/02/05 16:51:55;;;;;;;7.15;3.97;;;;;;;;;;4873517;29;20088;-81
2022/02/05 16:54:22;;;;;;;7.60;3.03;;;;;;;;;;4859587;29;20053;-81
2022/02/05 16:56:48;;;;;;;5.47;2.65;;;;;;;;;;4876055;29;20041;-82
2022/02/05 16:59:14;;;;;;;6.57;2.60;;;;;;;;;;4848749;29;20476;-82
2022/02/05 17:01:44;;;;;;;10.57;4.20;;;;;;;;;;4857027;29;20029;-82
2022/02/05 17:04:10;;;;;;;24.73;15.90;;;;;;;;;;4876675;29;20033;-83
2022/02/05 17:06:38;;;;;;;20.50;12.25;;;;;;;;;;4859344;29;20044;-83
2022/02/05 17:09:05;;;;;;;19.88;11.10;;;;;;;;;;4857629;29;20432;-81
2022/02/05 17:11:31;;;;;;;12.82;7.55;;;;;;;;;;4859525;29;20029;-81
2022/02/05 17:13:57;;;;;;;15.90;6.80;;;;;;;;;;4876317;29;20037;-81
2022/02/05 17:16:24;;;;;;;10.77;5.80;;;;;;;;;;4859587;29;20148;-81
2022/02/05 17:18:50;;;;;;;9.15;5.60;;;;;;;;;;4855950;29;20090;-82
2022/02/05 17:21:18;;;;;;;10.93;5.10;;;;;;;;;;4847142;29;20033;-81
2022/02/05 17:23:45;;;;;;;10.70;5.20;;;;;;;;;;4874332;29;20037;-82
2022/02/05 17:26:16;;;;;;;11.27;5.10;;;;;;;;;;4858696;29;20025;-81
2022/02/05 17:28:47;;;;;;;12.00;5.60;;;;;;;;;;4855654;29;20971;-81
2022/02/05 17:31:13;;;;;;;16.13;6.45;;;;;;;;;;4858844;29;20543;-82
2022/02/05 17:33:39;;;;;;;13.75;6.90;;;;;;;;;;4850531;29;20300;-81
2022/02/05 17:36:10;;;;;;;18.42;10.05;;;;;;;;;;4879495;29;20037;-82
2022/02/05 17:38:36;;;;;;;16.13;9.32;;;;;;;;;;4877284;29;20051;-82
2022/02/05 17:41:02;;;;;;;15.98;7.50;;;;;;;;;;4862906;29;20040;-81
2022/02/05 17:43:29;;;;;;;14.23;6.68;;;;;;;;;;4862704;29;20866;-82
2022/02/05 17:45:55;;;;;;;13.93;6.22;;;;;;;;;;4861287;29;20041;-81
2022/02/05 17:48:21;;;;;;;16.75;8.48;;;;;;;;;;4859251;29;20479;-81
2022/02/05 17:50:47;;;;;;;16.02;7.70;;;;;;;;;;4876485;29;20539;-82
2022/02/05 17:53:13;;;;;;;15.75;9.30;;;;;;;;;;4856050;29;20030;-81
2022/02/05 17:55:39;;;;;;;15.23;8.88;;;;;;;;;;4857036;29;20056;-82
2022/02/05 17:58:05;;;;;;;16.95;9.30;;;;;;;;;;4865572;29;20058;-78
2022/02/05 18:00:37;;;;;;;16.05;8.48;;;;;;;;;;4860767;29;20069;-85
2022/02/05 18:03:05;;;;;;;15.63;8.88;;;;;;;;;;4849860;29;20126;-73
2022/02/05 18:05:46;;;;;;;15.38;8.93;;;;;;;;;;4873269;29;20407;-74
2022/02/05 18:08:42;;;;;;;22.40;12.45;;;;;;;;;;4870435;29;20064;-73
2022/02/05 18:11:18;;;;;;;27.75;18.00;;;;;;;;;;4859117;29;20799;-74
2022/02/05 18:14:00;;;;;;;26.52;16.63;;;;;;;;;;4868371;29;20076;-74
2022/02/05 18:16:26;;;;;;;24.20;15.13;;;;;;;;;;4875640;29;20080;-74
2022/02/05 18:18:53;;;;;;;25.88;12.13;;;;;;;;;;4874809;29;20060;-75
2022/02/05 18:21:20;;;;;;;24.45;10.85;;;;;;;;;;4876948;29;20035;-74
2022/02/05 18:23:47;;;;;;;19.38;11.38;;;;;;;;;;4867580;29;20063;-74
2022/02/05 18:26:14;;;;;;;20.10;11.88;;;;;;;;;;4858926;29;20108;-74
2022/02/05 18:28:40;;;;;;;20.35;10.25;;;;;;;;;;4871848;29;20072;-74
2022/02/05 18:31:06;;;;;;;19.77;9.45;;;;;;;;;;4877612;29;20036;-74
2022/02/05 18:33:32;;;;;;;21.23;11.18;;;;;;;;;;4874181;29;20041;-75
2022/02/05 18:35:59;;;;;;;23.75;10.95;;;;;;;;;;4877530;29;20638;-73
2022/02/05 18:38:26;;;;;;;20.80;10.10;;;;;;;;;;4877352;29;20059;-75
2022/02/05 18:40:52;;;;;;;20.88;10.02;;;;;;;;;;4874040;29;20033;-74
2022/02/05 18:43:19;;;;;;;23.85;10.02;;;;;;;;;;4859453;29;20072;-74
2022/02/05 18:45:46;;;;;;;21.20;12.25;;;;;;;;;;4874695;29;20037;-74
2022/02/05 18:48:13;;;;;;;25.88;13.45;;;;;;;;;;4877834;29;20123;-75
2022/02/05 18:50:40;;;;;;;24.08;13.57;;;;;;;;;;4870654;29;20062;-74
2022/02/05 18:53:06;;;;;;;24.40;11.07;;;;;;;;;;4877759;29;20052;-75
2022/02/05 18:55:32;;;;;;;26.67;15.30;;;;;;;;;;4872310;29;20089;-74
2022/02/05 18:57:58;;;;;;;19.92;9.30;;;;;;;;;;4877453;29;20144;-74
2022/02/05 19:00:29;;;;;;;17.05;8.52;;;;;;;;;;4869521;29;20061;-74
2022/02/05 19:14:20;;;;;;;24.55;12.40;;;;;;;;;;4877177;29;20052;-75
2022/02/05 19:19:22;;;;;;;26.38;13.00;;;;;;;;;;4876591;29;20555;-74
2022/02/05 19:21:48;;;;;;;26.25;13.55;;;;;;;;;;4867283;29;20101;-74
2022/02/05 19:24:14;;;;;;;33.47;20.27;;;;;;;;;;4875345;29;20515;-74
2022/02/05 19:26:40;;;;;;;40.85;23.35;;;;;;;;;;4877091;29;20063;-74
2022/02/05 19:29:06;;;;;;;33.67;21.55;;;;;;;;;;4876853;29;20475;-74
2022/02/05 19:31:32;;;;;;;32.63;20.95;;;;;;;;;;4877153;29;20112;-74
2022/02/05 19:33:58;;;;;;;34.75;21.35;;;;;;;;;;4874248;29;20416;-74
2022/02/05 19:36:24;;;;;;;38.35;18.85;;;;;;;;;;4868791;29;20033;-75
2022/02/05 19:38:50;;;;;;;36.00;18.13;;;;;;;;;;4876324;29;20455;-75
2022/02/05 19:41:24;;;;;;;35.20;18.60;;;;;;;;;;4871593;29;20457;-74
2022/02/05 19:43:53;;;;;;;34.92;18.17;;;;;;;;;;4877324;29;20025;-74
2022/02/05 19:46:25;;;;;;;36.22;19.30;;;;;;;;;;4875858;29;20124;-74
2022/02/05 19:48:51;;;;;;;;;;;;;;;;;;4877056;29;20052;-74
2022/02/05 19:51:18;;;;;;;35.55;18.88;;;;;;;;;;4875912;29;20263;-74
2022/02/05 19:53:45;;;;;;;30.20;16.25;;;;;;;;;;4876947;29;20037;-75
2022/02/05 19:56:11;;;;;;;29.25;16.42;;;;;;;;;;4862559;29;20105;-74
2022/02/05 19:58:37;;;;;;;28.33;15.57;;;;;;;;;;4867255;29;20084;-75
2022/02/05 20:01:03;;;;;;;33.88;20.17;;;;;;;;;;4876250;29;20116;-74
2022/02/05 20:03:30;;;;;;;38.08;21.63;;;;;;;;;;4876148;29;20045;-74
2022/02/05 20:06:03;;;;;;;36.70;20.05;;;;;;;;;;4874713;29;20033;-75
2022/02/05 20:08:31;;;;;;;36.72;20.27;;;;;;;;;;4873337;29;20047;-75
2022/02/05 20:10:59;;;;;;;31.38;18.23;;;;;;;;;;4873997;29;20061;-74
2022/02/05 20:13:25;;;;;;;42.83;20.58;;;;;;;;;;4868947;29;20390;-74
2022/02/05 20:15:53;;;;;;;39.92;21.63;;;;;;;;;;4869201;29;20949;-74
2022/02/05 20:18:26;;;;;;;36.78;17.98;;;;;;;;;;4861365;29;20498;-74
2022/02/05 20:20:53;;;;;;;35.95;19.40;;;;;;;;;;4871161;29;20032;-74
2022/02/05 20:23:20;;;;;;;36.25;18.42;;;;;;;;;;4863034;29;20033;-74
2022/02/05 20:25:51;;;;;;;41.47;19.65;;;;;;;;;;4871866;29;20051;-75
2022/02/05 20:28:17;;;;;;;44.75;23.70;;;;;;;;;;4869234;29;20539;-75
2022/02/05 20:30:51;;;;;;;49.60;21.73;;;;;;;;;;4874891;29;20065;-74